Panola, South Carolina
Current Conditions -  °F | °C
As of 2:58 PM on Wednesday 28 Jan 2015 (Local Time) from KSSC Reporting Station
Clear Clear  
Wind Chill: 45°   Ceiling: Unl
Heat Index: 48°   Visibility: 10mi
Dew Point: 19°   Wind: 8mph
Humidity: 32%   Direction: 340°NNW
Pressure: 30.22"   Gusts: NA
Location:  33.7445°N, 80.5249°W
Report Text: KSSC 281958Z AUTO 34007KT 10SM CLR 09/M07 A3022 RMK AO2 SLPNO T00911070 $
Loading
Personal Weather Stations






























Interactive Weather Map New forecast layout! Learn more

10-Day Weather Forecast

Advertisements
Track Severe Weather on mobile